createdAt,value
2023-04-14T00:02:06.466Z,100978.78
2023-04-14T00:04:33.181Z,100978.78
2023-04-14T00:07:00.091Z,100977.13
2023-04-14T00:09:26.580Z,100982.25
2023-04-14T00:11:53.023Z,100980.56
2023-04-14T00:14:19.446Z,100978.03
2023-04-14T00:16:46.802Z,100981.47
2023-04-14T00:19:13.210Z,100983.19
2023-04-14T00:21:39.710Z,100984.06
2023-04-14T00:24:06.175Z,100992.56
2023-04-14T00:26:35.195Z,100992.59
2023-04-14T00:29:01.722Z,100989.22
2023-04-14T00:31:28.413Z,100985.88
2023-04-14T00:33:54.933Z,100987.59
2023-04-14T00:36:21.426Z,100988.47
2023-04-14T00:38:47.801Z,100987.63
2023-04-14T00:41:14.188Z,100991.91
2023-04-14T00:43:40.691Z,100985.97
2023-04-14T00:46:07.207Z,100986.84
2023-04-14T00:48:33.966Z,100988.53
2023-04-14T00:51:00.518Z,100981.75
2023-04-14T00:53:27.429Z,100989.41
2023-04-14T00:55:53.912Z,100992.81
2023-04-14T00:58:20.457Z,100994.53
2023-04-14T01:00:53.786Z,100994.53
2023-04-14T01:03:21.052Z,101008.09
2023-04-14T01:05:47.842Z,101003.03
2023-04-14T01:08:14.472Z,101007.28
2023-04-14T01:10:49.323Z,101003.06
2023-04-14T01:13:41.711Z,101001.38
2023-04-14T01:16:30.422Z,101009.84
2023-04-14T01:19:35.728Z,101009.00
2023-04-14T01:22:06.265Z,101014.09
2023-04-14T01:24:35.357Z,101010.69
2023-04-14T01:27:16.320Z,101010.72
2023-04-14T01:30:08.964Z,101006.50
2023-04-14T01:32:39.890Z,101016.69
2023-04-14T01:35:17.433Z,101015.00
2023-04-14T01:37:52.739Z,101018.38
2023-04-14T01:40:22.669Z,101020.06
2023-04-14T01:42:56.039Z,101014.19
2023-04-14T01:45:31.309Z,101015.88
2023-04-14T01:47:59.384Z,101020.94
2023-04-14T01:50:27.389Z,101015.88
2023-04-14T01:52:54.758Z,101015.03
2023-04-14T01:55:26.413Z,101020.13
2023-04-14T01:57:54.603Z,101019.28
2023-04-14T02:00:22.578Z,101021.81
2023-04-14T02:02:52.229Z,101028.59
2023-04-14T02:05:19.714Z,101025.19
2023-04-14T02:07:47.940Z,101029.44
2023-04-14T02:10:17.680Z,101039.63
2023-04-14T02:12:44.787Z,101034.53
2023-04-14T02:15:15.906Z,101040.47
2023-04-14T02:17:44.304Z,101037.94
2023-04-14T02:20:12.890Z,101039.63
2023-04-14T02:22:39.371Z,101030.31
2023-04-14T02:25:07.159Z,101035.41
2023-04-14T02:27:48.466Z,101032.88
2023-04-14T02:30:19.121Z,101036.25
2023-04-14T02:32:49.457Z,101032.88
2023-04-14T02:35:21.940Z,101038.78
2023-04-14T02:37:53.830Z,101041.31
2023-04-14T02:40:30.441Z,101044.69
2023-04-14T02:43:02.800Z,101044.69
2023-04-14T02:45:32.604Z,101051.47
2023-04-14T02:48:02.933Z,101057.38
2023-04-14T02:50:31.387Z,101049.78
2023-04-14T02:53:00.167Z,101056.53
2023-04-14T02:55:27.399Z,101046.38
2023-04-14T02:57:54.835Z,101049.78
2023-04-14T03:00:23.657Z,101051.44
2023-04-14T03:02:53.126Z,101058.22
2023-04-14T03:05:21.060Z,101063.31
2023-04-14T03:07:50.752Z,101064.13
2023-04-14T03:10:17.919Z,101064.97
2023-04-14T03:12:46.796Z,101062.44
2023-04-14T03:15:13.290Z,101058.19
2023-04-14T03:17:41.130Z,101064.13
2023-04-14T03:20:09.179Z,101060.72
2023-04-14T03:22:40.677Z,101063.25
2023-04-14T03:25:07.439Z,101066.63
2023-04-14T03:27:34.254Z,101076.78
2023-04-14T03:30:04.312Z,101065.78
2023-04-14T03:32:35.760Z,101066.63
2023-04-14T03:35:02.927Z,101076.78
2023-04-14T03:37:33.486Z,101072.53
2023-04-14T03:40:04.380Z,101074.22
2023-04-14T03:42:31.599Z,101066.63
2023-04-14T03:44:58.583Z,101070.81
2023-04-14T03:47:26.947Z,101063.22
2023-04-14T03:49:57.586Z,101069.97
2023-04-14T03:52:26.529Z,101080.13
2023-04-14T03:54:58.939Z,101073.34
2023-04-14T03:57:27.554Z,101075.88
2023-04-14T03:59:54.393Z,101069.97
2023-04-14T04:02:22.770Z,101073.34
2023-04-14T04:04:50.070Z,101073.31
2023-04-14T04:07:19.617Z,101078.41
2023-04-14T04:09:48.591Z,101077.53
2023-04-14T04:12:18.346Z,101075.84
2023-04-14T04:14:44.900Z,101078.38
2023-04-14T04:17:14.629Z,101071.63
2023-04-14T04:19:43.418Z,101080.03
2023-04-14T04:22:14.360Z,101076.66
2023-04-14T04:24:42.473Z,101078.34
2023-04-14T04:27:20.304Z,101085.94
2023-04-14T04:29:53.719Z,101096.06
2023-04-14T04:32:20.958Z,101090.16
2023-04-14T04:34:50.406Z,101094.34
2023-04-14T04:37:19.321Z,101097.75
2023-04-14T04:39:45.830Z,101098.56
2023-04-14T04:42:12.334Z,101100.28
2023-04-14T04:44:38.828Z,101103.66
2023-04-14T04:47:05.759Z,101107.03
2023-04-14T04:49:32.198Z,101101.13
2023-04-14T04:51:59.731Z,101102.00
2023-04-14T04:54:27.093Z,101102.84
2023-04-14T04:56:53.840Z,101108.72
2023-04-14T04:59:20.249Z,101118.03
2023-04-14T05:01:46.742Z,101110.44
2023-04-14T05:04:13.278Z,101111.25
2023-04-14T05:06:40.026Z,101106.19
2023-04-14T05:09:06.965Z,101105.38
2023-04-14T05:11:35.171Z,101107.91
2023-04-14T05:14:02.792Z,101108.75
2023-04-14T05:16:29.889Z,101107.06
2023-04-14T05:18:56.448Z,101106.22
2023-04-14T05:21:23.763Z,101109.63
2023-04-14T05:23:50.347Z,101109.63
2023-04-14T05:28:46.621Z,101103.72
2023-04-14T05:31:13.081Z,101103.72
2023-04-14T05:33:39.941Z,101102.03
2023-04-14T05:36:06.862Z,101106.28
2023-04-14T05:38:36.397Z,101101.22
2023-04-14T05:41:02.789Z,101102.06
2023-04-14T05:43:29.211Z,101109.69
2023-04-14T05:45:58.196Z,101107.16
2023-04-14T05:48:27.569Z,101110.53
2023-04-14T05:50:53.964Z,101113.09
2023-04-14T05:53:20.632Z,101108.03
2023-04-14T05:55:48.698Z,101100.47
2023-04-14T05:58:15.109Z,101107.25
2023-04-14T06:00:41.555Z,101102.19
2023-04-14T06:03:08.381Z,101103.88
2023-04-14T06:05:35.330Z,101108.94
2023-04-14T06:08:01.744Z,101105.56
2023-04-14T06:10:28.198Z,101101.38
2023-04-14T06:12:54.553Z,101098.81
2023-04-14T06:15:21.051Z,101088.66
2023-04-14T06:17:48.348Z,101092.03
2023-04-14T06:20:14.773Z,101093.72
2023-04-14T06:22:41.281Z,101085.28
2023-04-14T06:25:08.149Z,101091.16
2023-04-14T06:27:34.574Z,101084.41
2023-04-14T06:30:01.292Z,101091.16
2023-04-14T06:32:27.733Z,101095.41
2023-04-14T06:34:54.120Z,101089.44
2023-04-14T06:37:20.480Z,101091.13
2023-04-14T06:39:46.909Z,101096.19
2023-04-14T06:42:13.443Z,101092.75
2023-04-14T06:44:40.451Z,101088.44
2023-04-14T06:47:07.088Z,101077.28
2023-04-14T06:49:33.557Z,101076.25
2023-04-14T06:51:59.902Z,101078.59
2023-04-14T06:54:26.330Z,101077.53
2023-04-14T06:56:52.735Z,101074.81
2023-04-14T06:59:21.127Z,101082.22
2023-04-14T07:01:47.998Z,101078.53
2023-04-14T07:04:15.467Z,101077.31
2023-04-14T07:06:42.081Z,101071.06
2023-04-14T07:09:08.519Z,101076.69
2023-04-14T07:11:34.968Z,101066.06
2023-04-14T07:14:01.509Z,101075.84
2023-04-14T07:16:28.121Z,101070.38
2023-04-14T07:18:54.692Z,101067.44
2023-04-14T07:21:21.136Z,101068.69
2023-04-14T07:23:47.892Z,101064.91
2023-04-14T07:26:14.421Z,101065.41
2023-04-14T07:28:40.794Z,101059.00
2023-04-14T07:31:10.641Z,101064.28
2023-04-14T07:33:37.236Z,101062.94
2023-04-14T07:36:07.951Z,101059.78
2023-04-14T07:38:34.396Z,101065.16
2023-04-14T07:41:04.466Z,101056.94
2023-04-14T07:43:35.820Z,101059.75
2023-04-14T07:46:04.925Z,101060.19
2023-04-14T07:48:32.333Z,101056.22
2023-04-14T07:50:58.756Z,101059.22
2023-04-14T07:53:25.236Z,101053.50
2023-04-14T07:55:51.731Z,101052.94
2023-04-14T07:58:18.064Z,101049.91
2023-04-14T08:00:44.846Z,101056.38
2023-04-14T08:03:11.494Z,101059.34
2023-04-14T08:05:38.146Z,101058.84
2023-04-14T08:08:05.031Z,101055.34
2023-04-14T08:10:31.485Z,101049.50
2023-04-14T08:12:57.826Z,101049.75
2023-04-14T08:15:24.314Z,101046.72
2023-04-14T08:17:50.924Z,101046.88
2023-04-14T08:20:17.567Z,101053.16
2023-04-14T08:22:44.055Z,101052.91
2023-04-14T08:25:12.146Z,101053.41
2023-04-14T08:27:39.150Z,101050.50
2023-04-14T08:30:06.963Z,101046.44
2023-04-14T08:32:34.024Z,101048.53
2023-04-14T08:35:38.111Z,101049.38
2023-04-14T08:37:46.874Z,101048.38
2023-04-14T08:40:16.191Z,101052.19
2023-04-14T08:42:42.568Z,101053.16
2023-04-14T08:45:09.193Z,101061.91
2023-04-14T08:47:37.474Z,101052.50
2023-04-14T08:50:13.395Z,101047.97
2023-04-14T08:52:41.654Z,101047.19
2023-04-14T08:55:11.088Z,101047.13
2023-04-14T08:57:38.698Z,101046.59
2023-04-14T09:00:06.256Z,101048.44
2023-04-14T09:02:33.701Z,101045.56
2023-04-14T09:05:01.195Z,101050.28
2023-04-14T09:07:29.939Z,101042.56
2023-04-14T09:09:57.877Z,101036.78
2023-04-14T09:12:27.400Z,101033.34
2023-04-14T09:14:57.050Z,101030.44
2023-04-14T09:17:26.657Z,101026.13
2023-04-14T09:20:38.274Z,101026.69
2023-04-14T09:22:39.496Z,101021.94
2023-04-14T09:25:08.279Z,101024.88
2023-04-14T09:27:35.357Z,101028.47
2023-04-14T09:30:03.143Z,101022.19
2023-04-14T09:32:29.839Z,101024.09
2023-04-14T09:34:58.481Z,101017.56
2023-04-14T09:37:25.642Z,101028.72
2023-04-14T09:39:53.800Z,101015.84
2023-04-14T09:42:21.136Z,101019.81
2023-04-14T09:44:58.849Z,101020.16
2023-04-14T09:47:26.274Z,101020.59
2023-04-14T09:49:58.023Z,101021.34
2023-04-14T09:52:40.318Z,101016.03
2023-04-14T09:55:11.697Z,101012.00
2023-04-14T09:57:41.727Z,101021.19
2023-04-14T10:00:31.560Z,101009.81
2023-04-14T10:02:59.176Z,101009.56
2023-04-14T10:05:32.045Z,101012.56
2023-04-14T10:08:04.555Z,101017.88
2023-04-14T10:10:31.208Z,101002.28
2023-04-14T10:13:00.014Z,101002.53
2023-04-14T10:15:27.242Z,101002.91
2023-04-14T10:17:53.686Z,101005.81
2023-04-14T10:20:20.357Z,100984.94
2023-04-14T10:22:48.073Z,100992.53
2023-04-14T10:25:15.156Z,100986.78
2023-04-14T10:27:41.888Z,100987.94
2023-04-14T10:30:08.911Z,100983.91
2023-04-14T10:32:37.791Z,100980.00
2023-04-14T10:35:10.619Z,100981.09
2023-04-14T10:37:37.324Z,100979.94
2023-04-14T10:40:07.157Z,100975.84
2023-04-14T10:42:57.242Z,100973.97
2023-04-14T10:45:23.884Z,100983.75
2023-04-14T10:47:51.120Z,100986.03
2023-04-14T10:50:22.261Z,100983.44
2023-04-14T10:52:52.001Z,100972.13
2023-04-14T10:55:25.223Z,100966.78
2023-04-14T10:57:54.432Z,100972.72
2023-04-14T11:00:23.555Z,100976.00
2023-04-14T11:03:10.908Z,100974.94
2023-04-14T11:05:45.440Z,100974.34
2023-04-14T11:08:13.167Z,100971.16
2023-04-14T11:10:40.037Z,100958.91
2023-04-14T11:13:11.104Z,100963.88
2023-04-14T11:15:51.848Z,100957.19
2023-04-14T11:18:37.247Z,100965.38
2023-04-14T11:21:04.896Z,100958.44
2023-04-14T11:23:31.717Z,100948.91
2023-04-14T11:25:58.624Z,100955.47
2023-04-14T11:28:29.606Z,100953.69
2023-04-14T11:31:00.463Z,100954.69
2023-04-14T11:33:29.427Z,100955.16
2023-04-14T11:35:56.883Z,100951.81
2023-04-14T11:38:24.253Z,100955.34
2023-04-14T11:40:51.785Z,100957.84
2023-04-14T11:43:19.780Z,100948.84
2023-04-14T11:45:50.679Z,100952.34
2023-04-14T11:48:18.810Z,100951.94
2023-04-14T11:50:47.632Z,100954.22
2023-04-14T11:53:16.389Z,100954.50
2023-04-14T11:55:48.080Z,100951.94
2023-04-14T11:58:20.049Z,100954.44
2023-04-14T12:00:48.842Z,100959.09
2023-04-14T12:03:16.037Z,100955.22
2023-04-14T12:05:42.762Z,100954.94
2023-04-14T12:08:12.203Z,100948.09
2023-04-14T12:10:45.542Z,100949.47
2023-04-14T12:13:12.201Z,100953.34
2023-04-14T12:15:42.520Z,100952.38
2023-04-14T12:18:14.755Z,100952.03
2023-04-14T12:21:05.949Z,100952.63
2023-04-14T12:23:41.279Z,100951.06
2023-04-14T12:26:11.988Z,100948.00
2023-04-14T12:28:42.052Z,100935.28
2023-04-14T12:31:09.703Z,100944.59
2023-04-14T12:33:36.382Z,100947.38
2023-04-14T12:36:12.846Z,100942.41
2023-04-14T12:38:39.677Z,100939.94
2023-04-14T12:41:06.157Z,100934.03
2023-04-14T12:43:35.483Z,100922.28
2023-04-14T12:46:06.180Z,100933.81
2023-04-14T12:48:48.207Z,100928.97
2023-04-14T12:51:16.723Z,100926.22
2023-04-14T12:53:45.087Z,100930.69
2023-04-14T12:56:17.446Z,100921.72
2023-04-14T12:58:48.349Z,100922.16
2023-04-14T13:01:17.082Z,100915.38
2023-04-14T13:03:51.778Z,100911.94
2023-04-14T13:06:21.089Z,100917.66
2023-04-14T13:08:52.675Z,100913.34
2023-04-14T13:11:20.724Z,100915.44
2023-04-14T13:13:47.839Z,100903.34
2023-04-14T13:16:17.688Z,100904.41
2023-04-14T13:18:46.641Z,100902.25
2023-04-14T13:21:13.388Z,100900.00
2023-04-14T13:23:40.720Z,100901.28
2023-04-14T13:26:07.291Z,100892.38
2023-04-14T13:28:33.692Z,100905.81
2023-04-14T13:31:00.967Z,100897.88
2023-04-14T13:33:27.567Z,100894.50
2023-04-14T13:35:55.442Z,100897.97
2023-04-14T13:38:21.972Z,100893.06
2023-04-14T13:40:48.547Z,100896.56
2023-04-14T13:43:18.075Z,100889.72
2023-04-14T13:45:45.009Z,100889.81
2023-04-14T13:48:11.489Z,100891.03
2023-04-14T13:50:37.923Z,100884.31
2023-04-14T13:53:04.377Z,100879.19
2023-04-14T13:55:30.765Z,100880.28
2023-04-14T13:57:57.250Z,100879.81
2023-04-14T14:00:23.854Z,100873.53
2023-04-14T14:02:51.760Z,100877.41
2023-04-14T14:05:18.533Z,100877.31
2023-04-14T14:07:44.949Z,100872.28
2023-04-14T14:10:11.823Z,100857.34
2023-04-14T14:12:38.271Z,100855.06
2023-04-14T14:15:05.792Z,100853.47
2023-04-14T14:17:32.257Z,100857.00
2023-04-14T14:19:59.053Z,100854.34
2023-04-14T14:22:25.860Z,100853.69
2023-04-14T14:24:58.577Z,100853.34
2023-04-14T14:27:31.688Z,100847.75
2023-04-14T14:29:58.174Z,100856.13
2023-04-14T14:32:24.721Z,100843.75
2023-04-14T14:34:51.163Z,100852.06
2023-04-14T14:37:18.748Z,100846.16
2023-04-14T14:39:45.184Z,100841.94
2023-04-14T14:42:11.939Z,100839.03
2023-04-14T14:44:38.561Z,100838.06
2023-04-14T14:47:05.998Z,100827.44
2023-04-14T14:49:32.752Z,100833.63
2023-04-14T14:51:59.276Z,100821.72
2023-04-14T14:54:25.913Z,100828.28
2023-04-14T14:56:52.321Z,100832.28
2023-04-14T14:59:18.688Z,100825.81
2023-04-14T15:01:46.598Z,100829.00
2023-04-14T15:04:13.564Z,100825.91
2023-04-14T15:06:40.386Z,100820.25
2023-04-14T15:09:06.762Z,100815.88
2023-04-14T15:11:33.221Z,100817.25
2023-04-14T15:13:59.833Z,100808.75
2023-04-14T15:16:26.949Z,100809.38
2023-04-14T15:18:53.578Z,100813.38
2023-04-14T15:21:19.951Z,100810.84
2023-04-14T15:23:46.594Z,100816.91
2023-04-14T15:26:14.070Z,100816.44
2023-04-14T15:28:41.104Z,100817.19
2023-04-14T15:31:09.000Z,100823.75
2023-04-14T15:33:36.043Z,100820.78
2023-04-14T15:36:02.620Z,100824.09
2023-04-14T15:38:29.141Z,100817.94
2023-04-14T15:40:55.931Z,100823.03
2023-04-14T15:43:23.610Z,100823.56
2023-04-14T15:45:50.030Z,100819.00
2023-04-14T15:48:16.474Z,100826.34
2023-04-14T15:50:44.834Z,100825.16
2023-04-14T15:53:12.161Z,100825.56
2023-04-14T15:55:39.621Z,100817.88
2023-04-14T15:58:06.504Z,100824.72
2023-04-14T16:00:33.344Z,100824.66
2023-04-14T16:03:01.891Z,100822.75
2023-04-14T16:05:28.693Z,100820.81
2023-04-14T16:07:55.436Z,100824.75
2023-04-14T16:10:22.646Z,100830.34
2023-04-14T16:12:50.466Z,100828.25
2023-04-14T16:15:17.248Z,100828.34
2023-04-14T16:17:43.910Z,100823.28
2023-04-14T16:20:12.209Z,100823.94
2023-04-14T16:22:38.592Z,100825.16
2023-04-14T16:25:05.739Z,100819.13
2023-04-14T16:27:32.878Z,100827.25
2023-04-14T16:29:59.347Z,100822.03
2023-04-14T16:32:26.845Z,100816.78
2023-04-14T16:34:53.272Z,100823.72
2023-04-14T16:37:20.738Z,100824.97
2023-04-14T16:39:47.586Z,100818.00
2023-04-14T16:42:18.775Z,100820.47
2023-04-14T16:44:45.322Z,100820.34
2023-04-14T16:47:11.703Z,100814.00
2023-04-14T16:49:38.106Z,100815.63
2023-04-14T16:52:04.553Z,100829.25
2023-04-14T16:54:31.683Z,100824.94
2023-04-14T16:56:58.150Z,100824.34
2023-04-14T16:59:24.621Z,100825.19
2023-04-14T17:01:51.489Z,100828.53
2023-04-14T17:04:18.584Z,100821.50
2023-04-14T17:06:46.556Z,100830.63
2023-04-14T17:09:13.411Z,100834.81
2023-04-14T17:11:39.801Z,100832.72
2023-04-14T17:14:09.023Z,100835.97
2023-04-14T17:16:35.600Z,100830.50
2023-04-14T17:19:02.730Z,100831.19
2023-04-14T17:21:29.317Z,100831.59
2023-04-14T17:23:55.771Z,100833.25
2023-04-14T17:26:25.456Z,100836.69
2023-04-14T17:28:51.827Z,100833.25
2023-04-14T17:31:18.445Z,100833.41
2023-04-14T17:33:46.429Z,100836.25
2023-04-14T17:36:15.223Z,100837.50
2023-04-14T17:38:42.756Z,100835.22
2023-04-14T17:41:10.983Z,100841.47
2023-04-14T17:43:39.446Z,100845.28
2023-04-14T17:46:06.401Z,100845.53
2023-04-14T17:48:33.464Z,100849.00
2023-04-14T17:51:03.663Z,100855.41
2023-04-14T17:53:30.891Z,100857.34
2023-04-14T17:55:57.889Z,100854.91
2023-04-14T17:58:25.447Z,100855.88
2023-04-14T18:00:52.182Z,100858.47
2023-04-14T18:03:18.680Z,100850.97
2023-04-14T18:05:45.388Z,100866.63
2023-04-14T18:08:12.063Z,100864.94
2023-04-14T18:10:39.188Z,100860.09
2023-04-14T18:13:05.679Z,100859.22
2023-04-14T18:15:32.251Z,100871.25
2023-04-14T18:17:58.740Z,100863.66
2023-04-14T18:20:26.291Z,100863.88
2023-04-14T18:23:01.784Z,100869.94
2023-04-14T18:26:26.468Z,100882.44
2023-04-14T18:28:17.636Z,100884.47
2023-04-14T18:30:44.023Z,100889.22
2023-04-14T18:33:10.460Z,100892.03
2023-04-14T18:35:36.832Z,100892.22
2023-04-14T18:38:03.176Z,100886.34
2023-04-14T18:40:29.578Z,100893.41
2023-04-14T18:42:57.311Z,100892.78
2023-04-14T18:45:23.752Z,100890.50
2023-04-14T18:47:50.783Z,100887.31
2023-04-14T18:50:18.197Z,100891.84
2023-04-14T18:52:44.763Z,100896.38
2023-04-14T18:55:11.134Z,100899.28
2023-04-14T18:57:38.158Z,100903.78
2023-04-14T19:00:07.020Z,100898.03
2023-04-14T19:02:34.457Z,100905.31
2023-04-14T19:05:02.360Z,100906.41
2023-04-14T19:07:28.948Z,100908.03
2023-04-14T19:09:55.407Z,100911.56
2023-04-14T19:12:28.609Z,100916.81
2023-04-14T19:14:55.494Z,100916.09
2023-04-14T19:17:22.606Z,100916.28
2023-04-14T19:19:49.180Z,100925.13
2023-04-14T19:22:16.736Z,100931.31
2023-04-14T19:24:43.239Z,100926.31
2023-04-14T19:27:10.328Z,100932.38
2023-04-14T19:29:36.757Z,100928.38
2023-04-14T19:32:04.544Z,100931.22
2023-04-14T19:34:31.461Z,100934.13
2023-04-14T19:36:58.192Z,100938.72
2023-04-14T19:39:24.553Z,100933.78
2023-04-14T19:41:51.272Z,100935.06
2023-04-14T19:44:17.691Z,100943.06
2023-04-14T19:46:44.201Z,100942.44
2023-04-14T19:49:11.372Z,100942.88
2023-04-14T19:51:37.921Z,100943.19
2023-04-14T19:54:05.503Z,100943.53
2023-04-14T19:56:32.843Z,100945.72
2023-04-14T19:59:00.026Z,100952.69
2023-04-14T20:01:27.016Z,100947.03
2023-04-14T20:04:09.755Z,100947.31
2023-04-14T20:06:39.455Z,100940.78
2023-04-14T20:09:06.472Z,100953.03
2023-04-14T20:11:32.933Z,100941.38
2023-04-14T20:13:59.357Z,100940.69
2023-04-14T20:16:26.454Z,100948.56
2023-04-14T20:18:52.978Z,100945.28
2023-04-14T20:21:19.444Z,100941.25
2023-04-14T20:23:46.316Z,100943.97
2023-04-14T20:26:13.438Z,100945.19
2023-04-14T20:28:40.367Z,100943.00
2023-04-14T20:31:08.718Z,100944.19
2023-04-14T20:33:35.951Z,100953.75
2023-04-14T20:36:02.398Z,100945.44
2023-04-14T20:38:29.168Z,100955.00
2023-04-14T20:40:55.648Z,100949.28
2023-04-14T20:43:22.588Z,100954.59
2023-04-14T20:45:49.997Z,100944.56
2023-04-14T20:48:16.748Z,100948.22
2023-04-14T20:50:44.439Z,100952.88
2023-04-14T20:53:10.999Z,100942.69
2023-04-14T20:55:37.540Z,100946.25
2023-04-14T20:58:04.078Z,100940.41
2023-04-14T21:00:32.512Z,100942.38
2023-04-14T21:03:00.948Z,100939.22
2023-04-14T21:05:27.495Z,100943.66
2023-04-14T21:07:53.825Z,100944.69
2023-04-14T21:10:20.693Z,100947.41
2023-04-14T21:15:26.455Z,100943.19
2023-04-14T21:15:53.251Z,100945.91
2023-04-14T21:18:21.652Z,100947.84
2023-04-14T21:20:48.141Z,100937.78
2023-04-14T21:23:14.577Z,100940.38
2023-04-14T21:25:41.038Z,100941.41
2023-04-14T21:28:08.016Z,100937.28
2023-04-14T21:30:34.497Z,100938.16
2023-04-14T21:33:00.920Z,100941.78
2023-04-14T21:35:27.444Z,100944.53
2023-04-14T21:37:53.822Z,100942.09
2023-04-14T21:40:20.315Z,100940.50
2023-04-14T21:42:46.729Z,100943.16
2023-04-14T21:45:13.989Z,100944.13
2023-04-14T21:47:40.671Z,100946.84
2023-04-14T21:50:07.818Z,100947.72
2023-04-14T21:52:34.260Z,100957.28
2023-04-14T21:55:01.083Z,100952.34
2023-04-14T21:57:43.912Z,100953.25
2023-04-14T22:00:17.317Z,100952.56
2023-04-14T22:02:45.118Z,100951.88
2023-04-14T22:05:11.792Z,100950.31
2023-04-14T22:07:38.679Z,100953.78
2023-04-14T22:10:05.490Z,100957.22
2023-04-14T22:12:32.543Z,100948.75
2023-04-14T22:15:00.882Z,100951.47
2023-04-14T22:17:27.332Z,100949.94
2023-04-14T22:19:53.777Z,100951.75
2023-04-14T22:22:20.122Z,100956.22
2023-04-14T22:24:46.643Z,100960.66
2023-04-14T22:27:13.017Z,100960.84
2023-04-14T22:29:39.388Z,100958.50
2023-04-14T22:32:06.206Z,100961.09
2023-04-14T22:34:32.615Z,100958.66
2023-04-14T22:36:59.580Z,100969.69
2023-04-14T22:39:26.973Z,100965.47
2023-04-14T22:41:53.334Z,100977.50
2023-04-14T22:44:19.692Z,100977.59
2023-04-14T22:46:46.534Z,100970.78
2023-04-14T22:49:13.038Z,100975.13
2023-04-14T22:51:39.480Z,100979.50
2023-04-14T22:54:06.533Z,100982.13
2023-04-14T22:56:32.954Z,100980.50
2023-04-14T22:58:59.616Z,100985.66
2023-04-14T23:01:26.497Z,100990.84
2023-04-14T23:03:53.164Z,100985.81
2023-04-14T23:06:20.485Z,100987.56
2023-04-14T23:08:50.961Z,100982.41
2023-04-14T23:11:20.674Z,100987.38
2023-04-14T23:13:48.105Z,100989.09
2023-04-14T23:16:16.662Z,100995.09
2023-04-14T23:18:43.380Z,100993.47
2023-04-14T23:21:09.978Z,100992.69
2023-04-14T23:23:36.733Z,100994.41
2023-04-14T23:26:03.119Z,100999.50
2023-04-14T23:28:29.466Z,101007.19
2023-04-14T23:30:55.878Z,101010.66
2023-04-14T23:33:22.595Z,101011.59
2023-04-14T23:35:48.976Z,101004.00
2023-04-14T23:38:15.330Z,101011.66
2023-04-14T23:40:41.735Z,101009.97
2023-04-14T23:43:08.314Z,101005.78
2023-04-14T23:45:37.676Z,101009.22
2023-04-14T23:48:05.794Z,101009.19
2023-04-14T23:51:01.670Z,101005.88
2023-04-14T23:53:20.061Z,101011.03
2023-04-14T23:55:47.617Z,101004.28
2023-04-14T23:58:26.012Z,101006.81
